^^
Saratoga-Weather Station Historical Data
Daily Summary for April 1, 2021 Units:  English    Metric   Both
Daily Weekly Monthly Yearly Custom
  High: Low: Average:
Temperature: 53.1 °F 36.1 °F 42.3 °F
Dew Point: 40.5 °F 33.1 °F 36 °F
Humidity: 89% 54% 79%
Wind Speed: 4.9mph 0mph 0.6mph
Wind Gust: 9mph - -
Wind- - ESE
Pressure: 29.9 in 29.9 in -
Precipitation: 0 in    
Historical Graphs
 
 
Tabular Data for April 1, 2021
Time Temperature Dew Point Pressure Wind Wind Speed Wind Gust Humidity Rainfall Rate (Hourly) solar
00:02 44.1 °F 35.6 °F 29.9 in Calm     72% 0 in 0 W/m2
00:07 43.5 °F 35.1 °F 29.9 in Calm     72% 0 in 0 W/m2
00:12 43.3 °F 34.9 °F 29.9 in Calm     72% 0 in 0 W/m2
00:17 43.2 °F 34.7 °F 29.9 in Calm     72% 0 in 0 W/m2
00:22 42.8 °F 34.7 °F 29.9 in Calm     73% 0 in 0 W/m2
00:27 42.4 °F 34.3 °F 29.9 in Calm     73% 0 in 0 W/m2
00:32 42.3 °F 34.2 °F 29.9 in Calm     73% 0 in 0 W/m2
00:37 41.7 °F 34 °F 29.9 in Calm     74% 0 in 0 W/m2
00:42 41.5 °F 33.8 °F 29.9 in Calm     74% 0 in 0 W/m2
00:47 41.4 °F 34 °F 29.9 in Calm     75% 0 in 0 W/m2
00:52 41 °F 33.6 °F 29.9 in Calm     75% 0 in 0 W/m2
00:57 40.6 °F 33.6 °F 29.9 in Calm     76% 0 in 0 W/m2
01:02 40.5 °F 33.8 °F 29.9 in Calm     77% 0 in 0 W/m2
01:07 40.3 °F 33.6 °F 29.9 in Calm     77% 0 in 0 W/m2
01:12 40.1 °F 33.4 °F 29.9 in Calm     77% 0 in 0 W/m2
01:17 39.9 °F 33.6 °F 29.9 in Calm     78% 0 in 0 W/m2
01:22 39.7 °F 33.4 °F 29.9 in Calm     78% 0 in 0 W/m2
01:27 39.7 °F 33.4 °F 29.9 in Calm     78% 0 in 0 W/m2
01:32 39.6 °F 33.6 °F 29.9 in Calm     79% 0 in 0 W/m2
01:37 39.6 °F 33.6 °F 29.9 in Calm     79% 0 in 0 W/m2
01:42 39.6 °F 34 °F 29.9 in Calm     80% 0 in 0 W/m2
01:47 39.4 °F 33.8 °F 29.9 in Calm     80% 0 in 0 W/m2
01:52 39.4 °F 33.8 °F 29.9 in Calm     80% 0 in 0 W/m2
01:57 39.2 °F 33.8 °F 29.9 in Calm     81% 0 in 0 W/m2
02:02 39.2 °F 33.8 °F 29.9 in Calm     81% 0 in 0 W/m2
02:07 39 °F 33.6 °F 29.9 in Calm     81% 0 in 0 W/m2
02:12 39 °F 34 °F 29.9 in Calm     82% 0 in 0 W/m2
02:17 38.8 °F 33.8 °F 29.9 in Calm     82% 0 in 0 W/m2
02:22 38.7 °F 33.6 °F 29.9 in Calm     82% 0 in 0 W/m2
02:27 38.7 °F 34 °F 29.9 in Calm     83% 0 in 0 W/m2
02:32 38.5 °F 33.8 °F 29.9 in Calm     83% 0 in 0 W/m2
02:37 38.5 °F 33.8 °F 29.9 in Calm     83% 0 in 0 W/m2
02:42 38.3 °F 33.6 °F 29.9 in Calm     83% 0 in 0 W/m2
02:47 38.3 °F 34 °F 29.9 in West 0.9 mph 3 mph 84% 0 in 0 W/m2
02:52 38.3 °F 34 °F 29.9 in Calm   1 mph 84% 0 in 0 W/m2
02:57 38.3 °F 34 °F 29.9 in Calm     84% 0 in 0 W/m2
03:02 38.3 °F 34 °F 29.9 in Calm     84% 0 in 0 W/m2
03:07 38.1 °F 33.8 °F 29.9 in Calm     84% 0 in 0 W/m2
03:12 38.1 °F 34 °F 29.9 in Calm     85% 0 in 0 W/m2
03:17 37.9 °F 33.8 °F 29.9 in Calm     85% 0 in 0 W/m2
03:22 37.9 °F 33.8 °F 29.9 in Calm     85% 0 in 0 W/m2
03:27 37.8 °F 33.6 °F 29.9 in Calm     85% 0 in 0 W/m2
03:32 37.6 °F 33.8 °F 29.9 in West 0.9 mph 1 mph 86% 0 in 0 W/m2
03:37 37.6 °F 33.8 °F 29.9 in Calm   1 mph 86% 0 in 0 W/m2
03:42 37.6 °F 34 °F 29.9 in Calm     87% 0 in 0 W/m2
03:47 37.6 °F 34 °F 29.9 in Calm     87% 0 in 0 W/m2
03:52 37.4 °F 33.8 °F 29.9 in Calm     87% 0 in 0 W/m2
03:57 37.2 °F 33.8 °F 29.9 in Calm     87% 0 in 0 W/m2
04:02 37 °F 33.6 °F 29.9 in Calm     87% 0 in 0 W/m2
04:07 37 °F 33.6 °F 29.9 in Calm     87% 0 in 0 W/m2
04:12 36.9 °F 33.6 °F 29.9 in Calm     88% 0 in 0 W/m2
04:17 36.9 °F 33.6 °F 29.9 in Calm     88% 0 in 0 W/m2
04:22 36.9 °F 33.6 °F 29.9 in Calm     88% 0 in 0 W/m2
04:27 36.7 °F 33.4 °F 29.9 in Calm     88% 0 in 0 W/m2
04:32 36.5 °F 33.3 °F 29.9 in Calm     88% 0 in 0 W/m2
04:37 36.3 °F 33.1 °F 29.9 in Calm   1 mph 88% 0 in 0 W/m2
04:43 36.3 °F 33.4 °F 29.9 in Calm   1 mph 89% 0 in 0 W/m2
04:48 36.3 °F 33.4 °F 29.9 in Calm     89% 0 in 0 W/m2
04:53 36.1 °F 33.3 °F 29.9 in Calm     89% 0 in 0 W/m2
04:58 36.1 °F 33.3 °F 29.9 in Calm     89% 0 in 0 W/m2
05:03 36.3 °F 33.4 °F 29.9 in Calm   1 mph 89% 0 in 0 W/m2
05:08 36.3 °F 33.4 °F 29.9 in West 0.9 mph 2 mph 89% 0 in 0 W/m2
05:13 36.7 °F 33.8 °F 29.9 in West 0.9 mph 2 mph 89% 0 in 0 W/m2
05:18 36.9 °F 34 °F 29.9 in WSW 0.9 mph 1 mph 89% 0 in 0 W/m2
05:23 37.2 °F 34.3 °F 29.9 in Calm     89% 0 in 0 W/m2
05:28 37.6 °F 34.3 °F 29.9 in WSW 0.9 mph 1 mph 88% 0 in 0 W/m2
05:33 37.9 °F 34.7 °F 29.9 in Calm   2 mph 88% 0 in 0 W/m2
05:38 38.1 °F 34.5 °F 29.9 in Calm   1 mph 87% 0 in 0 W/m2
05:43 38.3 °F 34.7 °F 29.9 in Calm   1 mph 87% 0 in 0 W/m2
05:48 38.7 °F 35.1 °F 29.9 in Calm     87% 0 in 0 W/m2
05:53 38.7 °F 35.1 °F 29.9 in Calm     87% 0 in 0 W/m2
05:58 38.8 °F 35.1 °F 29.9 in Calm     86% 0 in 0 W/m2
06:03 39 °F 35.2 °F 29.9 in Calm     86% 0 in 0 W/m2
06:08 39 °F 35.2 °F 29.9 in Calm     86% 0 in 0 W/m2
06:13 39.2 °F 35.4 °F 29.9 in Calm     86% 0 in 0 W/m2
06:18 39.4 °F 35.6 °F 29.9 in Calm     86% 0 in 0 W/m2
06:23 39.4 °F 35.6 °F 29.9 in NNE 2 mph 2 mph 86% 0 in 0 W/m2
06:28 39.6 °F 35.1 °F 29.9 in East 0.9 mph 2 mph 84% 0 in 5 W/m2
06:33 39.6 °F 35.1 °F 29.9 in East 0.9 mph 2 mph 84% 0 in 12 W/m2
06:38 39.7 °F 35.2 °F 29.9 in East 0.9 mph 1 mph 84% 0 in 19 W/m2
06:43 39.7 °F 35.1 °F 29.9 in East 0.9 mph 2 mph 83% 0 in 25 W/m2
06:48 39.9 °F 35.4 °F 29.9 in Calm   1 mph 84% 0 in 25 W/m2
06:53 40.1 °F 35.6 °F 29.9 in Calm     84% 0 in 21 W/m2
06:58 40.3 °F 36.1 °F 29.9 in Calm     85% 0 in 21 W/m2
07:03 40.5 °F 36.3 °F 29.9 in Calm   1 mph 85% 0 in 35 W/m2
07:08 40.6 °F 36.1 °F 29.9 in Calm     84% 0 in 42 W/m2
07:13 40.6 °F 36.1 °F 29.9 in East 0.9 mph 1 mph 84% 0 in 49 W/m2
07:18 41 °F 36.3 °F 29.9 in Calm   2 mph 83% 0 in 56 W/m2
07:23 41.2 °F 36.1 °F 29.9 in SE 0.9 mph 1 mph 82% 0 in 53 W/m2
07:28 41.4 °F 36.3 °F 29.9 in SE 0.9 mph 2 mph 82% 0 in 47 W/m2
07:33 41.5 °F 36.1 °F 29.9 in SE 0.9 mph 2 mph 81% 0 in 58 W/m2
07:38 41.5 °F 36.1 °F 29.9 in ESE 0.9 mph 2 mph 81% 0 in 69 W/m2
07:43 41.7 °F 36.3 °F 29.9 in Calm     81% 0 in 65 W/m2
07:48 41.7 °F 36.3 °F 29.9 in SSE 0.9 mph 2 mph 81% 0 in 51 W/m2
07:53 42.1 °F 36.7 °F 29.9 in SSE 0.9 mph 1 mph 81% 0 in 62 W/m2
07:58 42.1 °F 36.7 °F 29.9 in Calm   1 mph 81% 0 in 79 W/m2
08:03 42.3 °F 36.9 °F 29.9 in Calm   1 mph 81% 0 in 90 W/m2
08:08 42.4 °F 37 °F 29.9 in SSW 0.9 mph 1 mph 81% 0 in 90 W/m2
08:13 42.4 °F 36.7 °F 29.9 in Calm   2 mph 80% 0 in 83 W/m2
08:18 42.6 °F 37.2 °F 29.9 in Calm   2 mph 81% 0 in 83 W/m2
08:23 42.8 °F 37 °F 29.9 in Calm   2 mph 80% 0 in 84 W/m2
08:28 43 °F 37.2 °F 29.9 in Calm   4 mph 80% 0 in 97 W/m2
08:33 43.2 °F 37.4 °F 29.9 in Calm   1 mph 80% 0 in 102 W/m2
08:38 43.2 °F 37 °F 29.9 in ENE 0.9 mph 2 mph 79% 0 in 107 W/m2
08:43 43.3 °F 37.2 °F 29.9 in Calm   2 mph 79% 0 in 104 W/m2
08:49 43.3 °F 37.2 °F 29.9 in Calm   1 mph 79% 0 in 100 W/m2
08:54 43.5 °F 37.4 °F 29.9 in Calm   2 mph 79% 0 in 105 W/m2
08:59 43.7 °F 37.6 °F 29.9 in ENE 0.9 mph 3 mph 79% 0 in 109 W/m2
09:04 43.9 °F 37.8 °F 29.9 in Calm     79% 0 in 114 W/m2
09:09 44.1 °F 37.6 °F 29.9 in Calm   1 mph 78% 0 in 120 W/m2
09:14 44.2 °F 37.8 °F 29.9 in Calm   2 mph 78% 0 in 120 W/m2
09:19 44.2 °F 38.1 °F 29.9 in NE 0.9 mph 1 mph 79% 0 in 130 W/m2
09:24 44.4 °F 37.9 °F 29.9 in North 0.9 mph 3 mph 78% 0 in 151 W/m2
09:29 44.6 °F 38.1 °F 29.9 in NE 2 mph 2 mph 78% 0 in 179 W/m2
09:34 44.8 °F 38.3 °F 29.9 in Calm   3 mph 78% 0 in 209 W/m2
09:39 45 °F 38.5 °F 29.9 in North 0.9 mph 1 mph 78% 0 in 218 W/m2
09:44 45.3 °F 38.8 °F 29.9 in Calm   3 mph 78% 0 in 211 W/m2
09:49 45.7 °F 38.8 °F 29.9 in ENE 2 mph 4 mph 77% 0 in 204 W/m2
09:54 45.9 °F 39 °F 29.9 in Calm   3 mph 77% 0 in 214 W/m2
09:59 45.9 °F 39 °F 29.9 in East 0.9 mph 2 mph 77% 0 in 197 W/m2
10:04 46.2 °F 39.4 °F 29.9 in NW 2 mph 5 mph 77% 0 in 188 W/m2
10:09 46.6 °F 39.4 °F 29.9 in NNE 0.9 mph 2 mph 76% 0 in 186 W/m2
10:14 46.8 °F 39.6 °F 29.9 in Calm   3 mph 76% 0 in 186 W/m2
10:19 46.9 °F 39.4 °F 29.9 in ENE 2 mph 2 mph 75% 0 in 193 W/m2
10:24 47.1 °F 39.6 °F 29.9 in ESE 2 mph 4 mph 75% 0 in 209 W/m2
10:29 47.1 °F 39.2 °F 29.9 in ENE 2 mph 4 mph 74% 0 in 227 W/m2
10:34 47.5 °F 39.6 °F 29.9 in East 0.9 mph 4 mph 74% 0 in 227 W/m2
10:39 47.7 °F 39.7 °F 29.9 in East 0.9 mph 2 mph 74% 0 in 229 W/m2
10:44 47.8 °F 39.9 °F 29.9 in East 2.9 mph 3 mph 74% 0 in 244 W/m2
10:49 48 °F 39.4 °F 29.9 in NE 0.9 mph 2 mph 72% 0 in 258 W/m2
10:54 48.4 °F 39.7 °F 29.9 in ENE 0.9 mph 4 mph 72% 0 in 285 W/m2
10:59 48.6 °F 39.6 °F 29.9 in NNE 0.9 mph 3 mph 71% 0 in 316 W/m2
11:04 48.6 °F 39.2 °F 29.9 in ESE 2.9 mph 6 mph 70% 0 in 311 W/m2
11:09 48.7 °F 39.4 °F 29.9 in NE 2 mph 4 mph 70% 0 in 325 W/m2
11:14 48.9 °F 39.2 °F 29.9 in ENE 2 mph 6 mph 69% 0 in 343 W/m2
11:19 49.3 °F 39.9 °F 29.9 in ENE 0.9 mph 5 mph 70% 0 in 394 W/m2
11:24 49.5 °F 40.1 °F 29.9 in ESE 0.9 mph 6 mph 70% 0 in 450 W/m2
11:29 49.6 °F 39.6 °F 29.9 in Calm   2 mph 68% 0 in 434 W/m2
11:34 50 °F 40.3 °F 29.9 in North 0.9 mph 6 mph 69% 0 in 452 W/m2
11:39 50.5 °F 39.9 °F 29.9 in SE 2 mph 3 mph 67% 0 in 478 W/m2
11:44 50.7 °F 39.7 °F 29.9 in East 2.9 mph 9 mph 66% 0 in 494 W/m2
11:49 51.1 °F 39.7 °F 29.9 in NNE 2.9 mph 3 mph 65% 0 in 469 W/m2
11:54 51.4 °F 40.5 °F 29.9 in East 4 mph 5 mph 66% 0 in 508 W/m2
11:59 51.6 °F 39.9 °F 29.9 in NNE 2.9 mph 6 mph 64% 0 in 538 W/m2
12:04 51.8 °F 40.5 °F 29.9 in NE 2 mph 4 mph 65% 0 in 482 W/m2
12:09 52.2 °F 39.9 °F 29.9 in Calm   3 mph 63% 0 in 517 W/m2
12:14 52.2 °F 39.9 °F 29.9 in WNW 2.9 mph 6 mph 63% 0 in 512 W/m2
12:19 52.2 °F 39.6 °F 29.9 in NE 4 mph 9 mph 62% 0 in 489 W/m2
12:24 52.2 °F 37.8 °F 29.9 in East 4 mph 8 mph 58% 0 in 515 W/m2
12:29 52.3 °F 37 °F 29.9 in WNW 2 mph 9 mph 56% 0 in 501 W/m2
12:34 52.7 °F 37.9 °F 29.9 in East 2.9 mph 7 mph 57% 0 in 439 W/m2
12:39 52.9 °F 37.2 °F 29.9 in Calm   1 mph 55% 0 in 457 W/m2
12:44 53.1 °F 36.9 °F 29.9 in ENE 4.9 mph 7 mph 54% 0 in 482 W/m2
Juneau County Weather
Compliments of Weather Underground - 2 mb